LKE9601 ZSQD-ZSHC
Flight info
| Callsign | LKE9601 |
|---|---|
| Flight time | 1h 14m |
| Altitude | 39100 |
| Route | LAT81D LATUX W108 MATNU/K0859S1160 W115 PINOT B221 OKTUG OKTUG91 |
| Aircraft | B737/M-SDE2E3FGHIRWXY/LB1 |
Departure
| Time | 2026-04-16 12:18 |
|---|---|
| Airport | Qingdao Jiaodong International Airport (ZSQD) |
Arrival
| Time | 2026-04-16 13:32 |
|---|---|
| Airport | Hangzhou Xiaoshan International Airport (ZSHC) |
| Time | Latitude | Longitude | Altitude | Speed | Heading |
|---|---|---|---|---|---|
| 2026-04-16 11:47 | 36.36203 | 120.08211 | 32 ft | 0 kts | 12° |
| 2026-04-16 12:05 | 36.36202 | 120.08211 | 32 ft | 2 kts | 12° |
| 2026-04-16 12:05 | 36.36178 | 120.08207 | 30 ft | 4 kts | 353° |
| 2026-04-16 12:05 | 36.36154 | 120.08217 | 33 ft | 4 kts | 316° |
| 2026-04-16 12:05 | 36.36142 | 120.08239 | 32 ft | 1 kts | 282° |
| 2026-04-16 12:06 | 36.36142 | 120.08240 | 32 ft | 0 kts | 282° |
| 2026-04-16 12:09 | 36.36142 | 120.08238 | 31 ft | 1 kts | 282° |
| 2026-04-16 12:09 | 36.36147 | 120.08212 | 33 ft | 5 kts | 283° |
| 2026-04-16 12:09 | 36.36155 | 120.08169 | 33 ft | 5 kts | 283° |
| 2026-04-16 12:09 | 36.36162 | 120.08126 | 33 ft | 5 kts | 283° |
| 2026-04-16 12:10 | 36.36169 | 120.08084 | 33 ft | 5 kts | 281° |
| 2026-04-16 12:10 | 36.36175 | 120.08043 | 33 ft | 5 kts | 275° |
| 2026-04-16 12:10 | 36.36174 | 120.08002 | 33 ft | 5 kts | 264° |
| 2026-04-16 12:10 | 36.36169 | 120.07961 | 33 ft | 5 kts | 257° |
| 2026-04-16 12:11 | 36.36159 | 120.07918 | 33 ft | 6 kts | 253° |
| 2026-04-16 12:11 | 36.36145 | 120.07861 | 31 ft | 8 kts | 252° |
| 2026-04-16 12:11 | 36.36133 | 120.07783 | 40 ft | 13 kts | 289° |
| 2026-04-16 12:11 | 36.36211 | 120.07736 | 36 ft | 13 kts | 343° |
| 2026-04-16 12:12 | 36.36295 | 120.07704 | 36 ft | 13 kts | 342° |
| 2026-04-16 12:12 | 36.36383 | 120.07669 | 36 ft | 14 kts | 342° |
| 2026-04-16 12:12 | 36.36482 | 120.07630 | 36 ft | 16 kts | 343° |
| 2026-04-16 12:12 | 36.36595 | 120.07586 | 36 ft | 18 kts | 342° |
| 2026-04-16 12:13 | 36.36724 | 120.07535 | 37 ft | 21 kts | 342° |
| 2026-04-16 12:13 | 36.36873 | 120.07477 | 36 ft | 24 kts | 342° |
| 2026-04-16 12:13 | 36.37017 | 120.07420 | 37 ft | 21 kts | 342° |
| 2026-04-16 12:13 | 36.37129 | 120.07377 | 37 ft | 11 kts | 342° |
| 2026-04-16 12:14 | 36.37169 | 120.07343 | 37 ft | 5 kts | 277° |
| 2026-04-16 12:14 | 36.37162 | 120.07323 | 36 ft | 3 kts | 248° |
| 2026-04-16 12:14 | 36.37152 | 120.07291 | 34 ft | 5 kts | 248° |
| 2026-04-16 12:14 | 36.37132 | 120.07240 | 35 ft | 7 kts | 239° |
| 2026-04-16 12:15 | 36.37090 | 120.07200 | 33 ft | 8 kts | 213° |
| 2026-04-16 12:15 | 36.37055 | 120.07187 | 35 ft | 4 kts | 173° |
| 2026-04-16 12:15 | 36.37037 | 120.07193 | 35 ft | 0 kts | 162° |
| 2026-04-16 12:17 | 36.36996 | 120.07209 | 35 ft | 29 kts | 162° |
| 2026-04-16 12:17 | 36.36540 | 120.07389 | 39 ft | 106 kts | 162° |
| 2026-04-16 12:17 | 36.35637 | 120.07745 | 136 ft | 156 kts | 162° |
| 2026-04-16 12:18 | 36.34637 | 120.08135 | 952 ft | 150 kts | 162° |
| 2026-04-16 12:18 | 36.33699 | 120.08510 | 1991 ft | 138 kts | 164° |
| 2026-04-16 12:18 | 36.32744 | 120.08887 | 2646 ft | 157 kts | 164° |
| 2026-04-16 12:18 | 36.31578 | 120.09345 | 2979 ft | 191 kts | 163° |
| 2026-04-16 12:19 | 36.30246 | 120.09863 | 3434 ft | 213 kts | 163° |
| 2026-04-16 12:19 | 36.28753 | 120.10472 | 3925 ft | 234 kts | 158° |
| 2026-04-16 12:19 | 36.27437 | 120.11715 | 4964 ft | 242 kts | 134° |
| 2026-04-16 12:19 | 36.26618 | 120.13592 | 6037 ft | 258 kts | 111° |
| 2026-04-16 12:20 | 36.26458 | 120.15868 | 6959 ft | 277 kts | 88° |
| 2026-04-16 12:20 | 36.26928 | 120.18210 | 7872 ft | 287 kts | 77° |
| 2026-04-16 12:20 | 36.27562 | 120.20582 | 8857 ft | 292 kts | 75° |
| 2026-04-16 12:20 | 36.28214 | 120.22996 | 9818 ft | 297 kts | 75° |
| 2026-04-16 12:21 | 36.28863 | 120.25459 | 10658 ft | 304 kts | 75° |
| 2026-04-16 12:21 | 36.29517 | 120.27989 | 11429 ft | 312 kts | 74° |
| 2026-04-16 12:21 | 36.30066 | 120.30619 | 12220 ft | 318 kts | 88° |
| 2026-04-16 12:21 | 36.29799 | 120.33291 | 13003 ft | 318 kts | 114° |
| 2026-04-16 12:22 | 36.28647 | 120.35635 | 13605 ft | 326 kts | 139° |
| 2026-04-16 12:22 | 36.26725 | 120.37220 | 13820 ft | 342 kts | 162° |
| 2026-04-16 12:22 | 36.25206 | 120.37886 | 13961 ft | 357 kts | 166° |
| 2026-04-16 12:22 | 36.21900 | 120.39138 | 14390 ft | 381 kts | 167° |
| 2026-04-16 12:23 | 36.20202 | 120.39760 | 14791 ft | 386 kts | 167° |
| 2026-04-16 12:23 | 36.16773 | 120.41034 | 15912 ft | 388 kts | 167° |
| 2026-04-16 12:23 | 36.15057 | 120.41684 | 16440 ft | 390 kts | 167° |
| 2026-04-16 12:23 | 36.11559 | 120.43024 | 17306 ft | 398 kts | 167° |
| 2026-04-16 12:24 | 36.09762 | 120.43718 | 17779 ft | 401 kts | 167° |
| 2026-04-16 12:24 | 36.07103 | 120.44748 | 18430 ft | 406 kts | 167° |
| 2026-04-16 12:24 | 36.04391 | 120.45800 | 19026 ft | 409 kts | 167° |
| 2026-04-16 12:24 | 36.01656 | 120.46861 | 19653 ft | 412 kts | 167° |
| 2026-04-16 12:25 | 35.98900 | 120.47928 | 20273 ft | 415 kts | 167° |
| 2026-04-16 12:25 | 35.96129 | 120.49000 | 20885 ft | 419 kts | 167° |
| 2026-04-16 12:25 | 35.93408 | 120.50252 | 21451 ft | 425 kts | 162° |
| 2026-04-16 12:25 | 35.90688 | 120.51750 | 22022 ft | 430 kts | 160° |
| 2026-04-16 12:26 | 35.87955 | 120.53330 | 22545 ft | 434 kts | 160° |
| 2026-04-16 12:26 | 35.85223 | 120.54900 | 22980 ft | 440 kts | 160° |
| 2026-04-16 12:26 | 35.82420 | 120.56479 | 23494 ft | 443 kts | 160° |
| 2026-04-16 12:26 | 35.79588 | 120.58045 | 23956 ft | 445 kts | 161° |
| 2026-04-16 12:27 | 35.76744 | 120.59602 | 24406 ft | 448 kts | 161° |
| 2026-04-16 12:27 | 35.73918 | 120.61144 | 24859 ft | 450 kts | 161° |
| 2026-04-16 12:27 | 35.71069 | 120.62820 | 25303 ft | 455 kts | 158° |
| 2026-04-16 12:27 | 35.68294 | 120.64665 | 25720 ft | 458 kts | 156° |
| 2026-04-16 12:28 | 35.65498 | 120.66608 | 26127 ft | 461 kts | 155° |
| 2026-04-16 12:28 | 35.62690 | 120.68565 | 26511 ft | 464 kts | 155° |
| 2026-04-16 12:28 | 35.59856 | 120.70516 | 26799 ft | 469 kts | 156° |
| 2026-04-16 12:28 | 35.57012 | 120.72445 | 27133 ft | 472 kts | 156° |
| 2026-04-16 12:29 | 35.54125 | 120.74389 | 27537 ft | 473 kts | 156° |
| 2026-04-16 12:29 | 35.51222 | 120.76338 | 27938 ft | 475 kts | 156° |
| 2026-04-16 12:29 | 35.48308 | 120.78288 | 28421 ft | 474 kts | 158° |
| 2026-04-16 12:29 | 35.45388 | 120.80003 | 28979 ft | 468 kts | 162° |
| 2026-04-16 12:30 | 35.42367 | 120.81516 | 29163 ft | 469 kts | 164° |
| 2026-04-16 12:30 | 35.39311 | 120.82950 | 29173 ft | 469 kts | 165° |
| 2026-04-16 12:30 | 35.33252 | 120.85815 | 29167 ft | 466 kts | 165° |
| 2026-04-16 12:31 | 35.27211 | 120.88783 | 29177 ft | 467 kts | 164° |
| 2026-04-16 12:31 | 35.21204 | 120.91771 | 29175 ft | 468 kts | 164° |
| 2026-04-16 12:32 | 35.15158 | 120.94768 | 29170 ft | 468 kts | 164° |
| 2026-04-16 12:32 | 35.09106 | 120.97771 | 29150 ft | 468 kts | 164° |
| 2026-04-16 12:33 | 35.03088 | 121.00759 | 29169 ft | 469 kts | 164° |
| 2026-04-16 12:33 | 34.97018 | 121.03769 | 29176 ft | 469 kts | 164° |
| 2026-04-16 12:34 | 34.90974 | 121.06761 | 29172 ft | 470 kts | 164° |
| 2026-04-16 12:34 | 34.84932 | 121.09747 | 29147 ft | 470 kts | 165° |
| 2026-04-16 12:35 | 34.78893 | 121.12727 | 29166 ft | 470 kts | 165° |
| 2026-04-16 12:35 | 34.72821 | 121.15718 | 29171 ft | 470 kts | 165° |
| 2026-04-16 12:36 | 34.66783 | 121.18687 | 29174 ft | 469 kts | 165° |
| 2026-04-16 12:36 | 34.60715 | 121.21666 | 29172 ft | 469 kts | 165° |
| 2026-04-16 12:37 | 34.54642 | 121.24643 | 29156 ft | 469 kts | 165° |
| 2026-04-16 12:37 | 34.48621 | 121.27588 | 29170 ft | 469 kts | 165° |
| 2026-04-16 12:38 | 34.42560 | 121.30552 | 29171 ft | 469 kts | 165° |
| 2026-04-16 12:38 | 34.36496 | 121.33511 | 29172 ft | 469 kts | 165° |
| 2026-04-16 12:39 | 34.30477 | 121.36445 | 29163 ft | 468 kts | 166° |
| 2026-04-16 12:39 | 34.24417 | 121.39392 | 29170 ft | 468 kts | 166° |
| 2026-04-16 12:40 | 34.18402 | 121.42313 | 29167 ft | 468 kts | 166° |
| 2026-04-16 12:40 | 34.12343 | 121.45251 | 29165 ft | 468 kts | 166° |
| 2026-04-16 12:41 | 34.06328 | 121.48163 | 29155 ft | 467 kts | 166° |
| 2026-04-16 12:41 | 34.00286 | 121.51085 | 29161 ft | 467 kts | 166° |
| 2026-04-16 12:42 | 33.94239 | 121.54000 | 29161 ft | 466 kts | 167° |
| 2026-04-16 12:42 | 33.88247 | 121.56891 | 29166 ft | 466 kts | 167° |
| 2026-04-16 12:43 | 33.82245 | 121.59781 | 29142 ft | 465 kts | 167° |
| 2026-04-16 12:43 | 33.76211 | 121.62682 | 29161 ft | 465 kts | 167° |
| 2026-04-16 12:44 | 33.70246 | 121.65546 | 29160 ft | 464 kts | 167° |
| 2026-04-16 12:44 | 33.64229 | 121.68468 | 29160 ft | 465 kts | 167° |
| 2026-04-16 12:45 | 33.58258 | 121.71370 | 29160 ft | 464 kts | 167° |
| 2026-04-16 12:45 | 33.52249 | 121.74284 | 29146 ft | 464 kts | 166° |
| 2026-04-16 12:46 | 33.46289 | 121.77192 | 29167 ft | 465 kts | 166° |
| 2026-04-16 12:46 | 33.40281 | 121.80125 | 29155 ft | 465 kts | 166° |
| 2026-04-16 12:47 | 33.34287 | 121.83046 | 29167 ft | 466 kts | 166° |
| 2026-04-16 12:47 | 33.28287 | 121.85964 | 29139 ft | 467 kts | 166° |
| 2026-04-16 12:48 | 33.22253 | 121.88894 | 29163 ft | 468 kts | 166° |
| 2026-04-16 12:48 | 33.16201 | 121.91828 | 29160 ft | 469 kts | 166° |
| 2026-04-16 12:49 | 33.10167 | 121.94750 | 29160 ft | 470 kts | 166° |
| 2026-04-16 12:49 | 33.04087 | 121.97689 | 29158 ft | 471 kts | 166° |
| 2026-04-16 12:50 | 32.98013 | 122.00622 | 29149 ft | 470 kts | 167° |
| 2026-04-16 12:50 | 32.91972 | 122.03535 | 29155 ft | 470 kts | 167° |
| 2026-04-16 12:51 | 32.85894 | 122.06460 | 29154 ft | 470 kts | 167° |
| 2026-04-16 12:51 | 32.79852 | 122.09364 | 29153 ft | 469 kts | 167° |
| 2026-04-16 12:52 | 32.73793 | 122.12270 | 29146 ft | 469 kts | 167° |
| 2026-04-16 12:52 | 32.67724 | 122.15177 | 29153 ft | 470 kts | 167° |
| 2026-04-16 12:53 | 32.61680 | 122.18068 | 29144 ft | 471 kts | 167° |
| 2026-04-16 12:53 | 32.55591 | 122.20977 | 29145 ft | 471 kts | 167° |
| 2026-04-16 12:54 | 32.49530 | 122.23869 | 29130 ft | 471 kts | 166° |
| 2026-04-16 12:54 | 32.43430 | 122.26775 | 29144 ft | 471 kts | 166° |
| 2026-04-16 12:55 | 32.37373 | 122.29656 | 29142 ft | 471 kts | 167° |
| 2026-04-16 12:55 | 32.31288 | 122.32547 | 29141 ft | 470 kts | 167° |
| 2026-04-16 12:56 | 32.25231 | 122.35420 | 29127 ft | 470 kts | 166° |
| 2026-04-16 12:56 | 32.19135 | 122.38307 | 29131 ft | 471 kts | 166° |
| 2026-04-16 12:57 | 32.13063 | 122.41177 | 29138 ft | 471 kts | 166° |
| 2026-04-16 12:57 | 32.06992 | 122.44044 | 29134 ft | 472 kts | 166° |
| 2026-04-16 12:58 | 32.00865 | 122.46933 | 29137 ft | 473 kts | 166° |
| 2026-04-16 12:58 | 31.94779 | 122.49799 | 29137 ft | 473 kts | 166° |
| 2026-04-16 12:59 | 31.88650 | 122.52682 | 29135 ft | 474 kts | 166° |
| 2026-04-16 13:00 | 31.79445 | 122.57004 | 29131 ft | 474 kts | 166° |
| 2026-04-16 13:00 | 31.73346 | 122.59862 | 29136 ft | 474 kts | 167° |
| 2026-04-16 13:01 | 31.67156 | 122.61439 | 29141 ft | 442 kts | 193° |
| 2026-04-16 13:01 | 31.64178 | 122.60763 | 29151 ft | 429 kts | 204° |
| 2026-04-16 13:01 | 31.61475 | 122.59398 | 29120 ft | 419 kts | 216° |
| 2026-04-16 13:02 | 31.56835 | 122.55407 | 29123 ft | 414 kts | 222° |
| 2026-04-16 13:02 | 31.52245 | 122.51306 | 29116 ft | 415 kts | 221° |
| 2026-04-16 13:03 | 31.47605 | 122.47261 | 29122 ft | 415 kts | 221° |
| 2026-04-16 13:03 | 31.42568 | 122.43828 | 29116 ft | 426 kts | 208° |
| 2026-04-16 13:04 | 31.36999 | 122.41384 | 29108 ft | 427 kts | 207° |
| 2026-04-16 13:04 | 31.31430 | 122.38943 | 29117 ft | 427 kts | 207° |
| 2026-04-16 13:05 | 31.25873 | 122.36480 | 29106 ft | 427 kts | 207° |
| 2026-04-16 13:05 | 31.20357 | 122.34027 | 29131 ft | 427 kts | 207° |
| 2026-04-16 13:06 | 31.14802 | 122.31560 | 29116 ft | 427 kts | 207° |
| 2026-04-16 13:06 | 31.09253 | 122.29099 | 29111 ft | 426 kts | 207° |
| 2026-04-16 13:07 | 31.03706 | 122.26641 | 29098 ft | 426 kts | 206° |
| 2026-04-16 13:07 | 30.98111 | 122.24308 | 29107 ft | 430 kts | 202° |
| 2026-04-16 13:08 | 30.92346 | 122.22411 | 29111 ft | 431 kts | 202° |
| 2026-04-16 13:08 | 30.86577 | 122.20506 | 29089 ft | 431 kts | 202° |
| 2026-04-16 13:09 | 30.81187 | 122.17751 | 29115 ft | 419 kts | 219° |
| 2026-04-16 13:09 | 30.77014 | 122.13143 | 29093 ft | 413 kts | 236° |
| 2026-04-16 13:10 | 30.73883 | 122.07553 | 29105 ft | 413 kts | 238° |
| 2026-04-16 13:10 | 30.70781 | 122.01930 | 29099 ft | 413 kts | 238° |
| 2026-04-16 13:11 | 30.67655 | 121.96326 | 29093 ft | 413 kts | 238° |
| 2026-04-16 13:11 | 30.65037 | 121.91667 | 29090 ft | 414 kts | 238° |
| 2026-04-16 13:12 | 30.61365 | 121.85156 | 29093 ft | 415 kts | 238° |
| 2026-04-16 13:12 | 30.58200 | 121.79552 | 29111 ft | 415 kts | 238° |
| 2026-04-16 13:13 | 30.55034 | 121.73955 | 29096 ft | 415 kts | 238° |
| 2026-04-16 13:13 | 30.52384 | 121.69274 | 29062 ft | 414 kts | 238° |
| 2026-04-16 13:14 | 30.49222 | 121.63697 | 29074 ft | 413 kts | 238° |
| 2026-04-16 13:14 | 30.46079 | 121.58161 | 28619 ft | 417 kts | 238° |
| 2026-04-16 13:14 | 30.44470 | 121.55327 | 27550 ft | 420 kts | 239° |
| 2026-04-16 13:15 | 30.42862 | 121.52501 | 26438 ft | 419 kts | 239° |
| 2026-04-16 13:15 | 30.41265 | 121.49695 | 25399 ft | 416 kts | 239° |
| 2026-04-16 13:15 | 30.39678 | 121.46909 | 24391 ft | 413 kts | 239° |
| 2026-04-16 13:15 | 30.38102 | 121.44143 | 23412 ft | 410 kts | 240° |
| 2026-04-16 13:16 | 30.36536 | 121.41396 | 22264 ft | 407 kts | 239° |
| 2026-04-16 13:16 | 30.34982 | 121.38671 | 21248 ft | 403 kts | 239° |
| 2026-04-16 13:16 | 30.33450 | 121.35959 | 20203 ft | 402 kts | 239° |
| 2026-04-16 13:16 | 30.31929 | 121.33255 | 19205 ft | 400 kts | 239° |
| 2026-04-16 13:17 | 30.30413 | 121.30558 | 18243 ft | 399 kts | 239° |
| 2026-04-16 13:17 | 30.28902 | 121.27874 | 17158 ft | 397 kts | 239° |
| 2026-04-16 13:17 | 30.27394 | 121.25202 | 16188 ft | 394 kts | 238° |
| 2026-04-16 13:17 | 30.25902 | 121.22562 | 15279 ft | 390 kts | 238° |
| 2026-04-16 13:18 | 30.24357 | 121.19987 | 14319 ft | 389 kts | 235° |
| 2026-04-16 13:18 | 30.22757 | 121.17485 | 13363 ft | 387 kts | 234° |
| 2026-04-16 13:18 | 30.21145 | 121.15011 | 12422 ft | 383 kts | 234° |
| 2026-04-16 13:18 | 30.19572 | 121.12595 | 11537 ft | 379 kts | 234° |
| 2026-04-16 13:19 | 30.18000 | 121.10166 | 10835 ft | 372 kts | 234° |
| 2026-04-16 13:19 | 30.16504 | 121.07845 | 10676 ft | 351 kts | 234° |
| 2026-04-16 13:19 | 30.15091 | 121.05644 | 10537 ft | 332 kts | 234° |
| 2026-04-16 13:19 | 30.13748 | 121.03551 | 10403 ft | 315 kts | 234° |
| 2026-04-16 13:20 | 30.12474 | 121.01567 | 10282 ft | 300 kts | 234° |
| 2026-04-16 13:20 | 30.11256 | 120.99674 | 10159 ft | 287 kts | 234° |
| 2026-04-16 13:20 | 30.10106 | 120.97851 | 10036 ft | 274 kts | 240° |
| 2026-04-16 13:20 | 30.09497 | 120.95828 | 9785 ft | 266 kts | 264° |
| 2026-04-16 13:21 | 30.09592 | 120.93719 | 9527 ft | 263 kts | 283° |
| 2026-04-16 13:21 | 30.10157 | 120.91710 | 9274 ft | 264 kts | 288° |
| 2026-04-16 13:21 | 30.10783 | 120.89700 | 8996 ft | 267 kts | 289° |
| 2026-04-16 13:21 | 30.11402 | 120.87702 | 8714 ft | 262 kts | 288° |
| 2026-04-16 13:22 | 30.12006 | 120.85733 | 8447 ft | 257 kts | 288° |
| 2026-04-16 13:22 | 30.12615 | 120.83812 | 8184 ft | 253 kts | 294° |
| 2026-04-16 13:22 | 30.13704 | 120.82242 | 7928 ft | 251 kts | 317° |
| 2026-04-16 13:22 | 30.15176 | 120.81169 | 7678 ft | 249 kts | 330° |
| 2026-04-16 13:23 | 30.16699 | 120.80303 | 7425 ft | 246 kts | 331° |
| 2026-04-16 13:23 | 30.18225 | 120.79443 | 7172 ft | 242 kts | 330° |
| 2026-04-16 13:23 | 30.19725 | 120.78584 | 6928 ft | 239 kts | 330° |
| 2026-04-16 13:23 | 30.21206 | 120.77727 | 6685 ft | 236 kts | 330° |
| 2026-04-16 13:24 | 30.22664 | 120.76882 | 6450 ft | 234 kts | 330° |
| 2026-04-16 13:24 | 30.24111 | 120.76044 | 6202 ft | 231 kts | 330° |
| 2026-04-16 13:24 | 30.25537 | 120.75217 | 5963 ft | 228 kts | 330° |
| 2026-04-16 13:24 | 30.26944 | 120.74399 | 5715 ft | 225 kts | 330° |
| 2026-04-16 13:25 | 30.28332 | 120.73592 | 5483 ft | 222 kts | 330° |
| 2026-04-16 13:25 | 30.29684 | 120.72803 | 5243 ft | 213 kts | 330° |
| 2026-04-16 13:25 | 30.30983 | 120.72044 | 5033 ft | 205 kts | 329° |
| 2026-04-16 13:25 | 30.32224 | 120.71319 | 4846 ft | 194 kts | 330° |
| 2026-04-16 13:26 | 30.33417 | 120.70622 | 4673 ft | 193 kts | 330° |
| 2026-04-16 13:26 | 30.34577 | 120.69855 | 4456 ft | 190 kts | 314° |
| 2026-04-16 13:26 | 30.35057 | 120.68560 | 4465 ft | 179 kts | 266° |
| 2026-04-16 13:26 | 30.34798 | 120.67126 | 4271 ft | 186 kts | 257° |
| 2026-04-16 13:27 | 30.34434 | 120.65695 | 4038 ft | 188 kts | 252° |
| 2026-04-16 13:27 | 30.34003 | 120.64278 | 3788 ft | 184 kts | 251° |
| 2026-04-16 13:27 | 30.33526 | 120.62911 | 3544 ft | 182 kts | 247° |
| 2026-04-16 13:27 | 30.32986 | 120.61587 | 3326 ft | 182 kts | 244° |
| 2026-04-16 13:28 | 30.32418 | 120.60277 | 3078 ft | 182 kts | 244° |
| 2026-04-16 13:28 | 30.31844 | 120.58975 | 2834 ft | 181 kts | 243° |
| 2026-04-16 13:28 | 30.31268 | 120.57674 | 2602 ft | 182 kts | 243° |
| 2026-04-16 13:28 | 30.30690 | 120.56369 | 2359 ft | 183 kts | 243° |
| 2026-04-16 13:29 | 30.30119 | 120.55079 | 2111 ft | 175 kts | 243° |
| 2026-04-16 13:29 | 30.29584 | 120.53867 | 1883 ft | 163 kts | 243° |
| 2026-04-16 13:29 | 30.29088 | 120.52745 | 1689 ft | 150 kts | 243° |
| 2026-04-16 13:29 | 30.28646 | 120.51748 | 1514 ft | 134 kts | 243° |
| 2026-04-16 13:30 | 30.28234 | 120.50814 | 1335 ft | 130 kts | 243° |
| 2026-04-16 13:30 | 30.27824 | 120.49885 | 1149 ft | 130 kts | 243° |
| 2026-04-16 13:30 | 30.27403 | 120.48933 | 972 ft | 134 kts | 244° |
| 2026-04-16 13:30 | 30.26979 | 120.47974 | 790 ft | 133 kts | 244° |
| 2026-04-16 13:31 | 30.26553 | 120.47011 | 655 ft | 133 kts | 245° |
| 2026-04-16 13:31 | 30.26132 | 120.46056 | 473 ft | 133 kts | 245° |
| 2026-04-16 13:31 | 30.25713 | 120.45107 | 273 ft | 129 kts | 244° |
| 2026-04-16 13:31 | 30.25307 | 120.44192 | 98 ft | 127 kts | 244° |
| 2026-04-16 13:32 | 30.24922 | 120.43318 | 33 ft | 106 kts | 242° |
| 2026-04-16 13:32 | 30.24681 | 120.42776 | 28 ft | 45 kts | 242° |
| 2026-04-16 13:32 | 30.24549 | 120.42474 | 28 ft | 40 kts | 243° |
| 2026-04-16 13:32 | 30.24456 | 120.42310 | 30 ft | 19 kts | 226° |
| 2026-04-16 13:33 | 30.24370 | 120.42221 | 28 ft | 16 kts | 217° |
| 2026-04-16 13:33 | 30.24291 | 120.42156 | 29 ft | 6 kts | 200° |
| 2026-04-16 13:33 | 30.24254 | 120.42128 | 31 ft | 7 kts | 215° |
| 2026-04-16 13:33 | 30.24214 | 120.42095 | 31 ft | 7 kts | 205° |
| 2026-04-16 13:34 | 30.24168 | 120.42120 | 31 ft | 8 kts | 153° |
| 2026-04-16 13:34 | 30.24106 | 120.42151 | 31 ft | 11 kts | 155° |
| 2026-04-16 13:34 | 30.24046 | 120.42208 | 31 ft | 11 kts | 120° |
| 2026-04-16 13:34 | 30.23997 | 120.42276 | 31 ft | 7 kts | 137° |
| 2026-04-16 13:35 | 30.23966 | 120.42309 | 29 ft | 3 kts | 137° |
| 2026-04-16 13:35 | 30.23958 | 120.42317 | 31 ft | 0 kts | 136° |
| 2026-04-16 13:35 | 30.23957 | 120.42318 | 31 ft | 0 kts | 136° |